BIENTÔT MET'MAP
version 2.0 !

Prévue avant fin octobre,
la nouvelle version sera
plus belle, plus complète
et hébergée sur un serveur
3 fois plus puissant...
et toujours gratuite !


Pas compatible ?
Essayez la version Mobile !

SE CONNECTER : | S'inscrire | Disclaimer | Découvrir Orbifly |
Code OACI :

TAF - LGKV Megas Alexandros - 02 Jun 2020 14:40 UTC - Data Source NOAA   


- Altitude de l'aérodrome : 18 ft
- Code IATA : KVA
- Pas de NOTAMs connus.


LGKV - Megas Alexandros

Dernier METAR connu : 2015/08/11 07:50 LGKV 110750Z VRB03KT 9999 FEW040 30/17 Q1010
TAF TAF LGKV
Valide du 02 à 12h jusqu'au 03 à 12h UTC


021100Z 0212/0312 VRB03KT 9999 FEW020TCU SCT030 BKN080
TEMPO 0212/0312 7000 SHRA
PROB40
TEMPO 0212/0303 5000 TSRA FEW015CB SCT030 BKN070

Source NOAA


MET'MAP, la Météo Aéronautique d'un coup d'oeil ! - Copyright ORBIFLY Décembre 2007

Développement & Programmation : Alexandra Zaïnal
Co-Développement : Marc-Olivier Méhu
Soutien technique & logistique : Manuel Goepfert
Conception & Financement : Baudouin d'Aumeries